sensor_id;sensor_type;location;lat;lon;timestamp;P1;durP1;ratioP1;P2;durP2;ratioP2
5742;SDS011;2896;53.500;10.020;2023-07-31T00:01:28;6.37;;;2.77;;
5742;SDS011;2896;53.500;10.020;2023-07-31T00:03:55;7.93;;;3.07;;
5742;SDS011;2896;53.500;10.020;2023-07-31T00:06:23;4.23;;;2.97;;
5742;SDS011;2896;53.500;10.020;2023-07-31T00:08:49;5.93;;;4.23;;
5742;SDS011;2896;53.500;10.020;2023-07-31T00:11:16;12.50;;;2.90;;
5742;SDS011;2896;53.500;10.020;2023-07-31T00:13:43;9.40;;;3.00;;
5742;SDS011;2896;53.500;10.020;2023-07-31T00:16:09;5.33;;;2.83;;
5742;SDS011;2896;53.500;10.020;2023-07-31T00:18:36;4.40;;;2.30;;
5742;SDS011;2896;53.500;10.020;2023-07-31T00:21:03;3.40;;;2.50;;
5742;SDS011;2896;53.500;10.020;2023-07-31T00:23:30;4.73;;;3.17;;
5742;SDS011;2896;53.500;10.020;2023-07-31T00:25:57;2.40;;;2.30;;
5742;SDS011;2896;53.500;10.020;2023-07-31T00:28:24;6.57;;;2.63;;
5742;SDS011;2896;53.500;10.020;2023-07-31T00:30:50;10.00;;;2.80;;
5742;SDS011;2896;53.500;10.020;2023-07-31T00:33:17;6.00;;;3.37;;
5742;SDS011;2896;53.500;10.020;2023-07-31T00:35:44;2.63;;;2.40;;
5742;SDS011;2896;53.500;10.020;2023-07-31T00:38:10;6.17;;;2.67;;
5742;SDS011;2896;53.500;10.020;2023-07-31T00:40:38;8.97;;;2.40;;
5742;SDS011;2896;53.500;10.020;2023-07-31T00:43:05;3.83;;;2.43;;
5742;SDS011;2896;53.500;10.020;2023-07-31T00:45:32;3.10;;;2.60;;
5742;SDS011;2896;53.500;10.020;2023-07-31T00:47:59;4.57;;;2.80;;
5742;SDS011;2896;53.500;10.020;2023-07-31T00:50:25;5.40;;;2.67;;
5742;SDS011;2896;53.500;10.020;2023-07-31T00:52:54;4.30;;;1.97;;
5742;SDS011;2896;53.500;10.020;2023-07-31T00:55:20;6.60;;;2.50;;
5742;SDS011;2896;53.500;10.020;2023-07-31T00:57:49;6.43;;;3.60;;
5742;SDS011;2896;53.500;10.020;2023-07-31T01:00:17;10.67;;;3.00;;
5742;SDS011;2896;53.500;10.020;2023-07-31T01:02:44;4.60;;;2.60;;
5742;SDS011;2896;53.500;10.020;2023-07-31T01:05:11;4.40;;;2.87;;
5742;SDS011;2896;53.500;10.020;2023-07-31T01:07:39;3.27;;;2.60;;
5742;SDS011;2896;53.500;10.020;2023-07-31T01:10:11;4.03;;;2.90;;
5742;SDS011;2896;53.500;10.020;2023-07-31T01:12:45;8.60;;;2.83;;
5742;SDS011;2896;53.500;10.020;2023-07-31T01:15:15;11.93;;;2.77;;
5742;SDS011;2896;53.500;10.020;2023-07-31T01:17:42;2.90;;;2.37;;
5742;SDS011;2896;53.500;10.020;2023-07-31T01:20:10;5.37;;;2.60;;
5742;SDS011;2896;53.500;10.020;2023-07-31T01:22:51;7.77;;;3.70;;
5742;SDS011;2896;53.500;10.020;2023-07-31T01:25:43;7.60;;;3.50;;
5742;SDS011;2896;53.500;10.020;2023-07-31T01:28:14;6.83;;;3.10;;
5742;SDS011;2896;53.500;10.020;2023-07-31T01:30:47;6.73;;;3.00;;
5742;SDS011;2896;53.500;10.020;2023-07-31T01:33:15;7.63;;;3.20;;
5742;SDS011;2896;53.500;10.020;2023-07-31T01:35:43;10.33;;;3.70;;
5742;SDS011;2896;53.500;10.020;2023-07-31T01:38:11;4.07;;;3.10;;
5742;SDS011;2896;53.500;10.020;2023-07-31T01:40:40;2.90;;;2.70;;
5742;SDS011;2896;53.500;10.020;2023-07-31T01:43:09;6.17;;;3.40;;
5742;SDS011;2896;53.500;10.020;2023-07-31T01:45:35;10.40;;;3.63;;
5742;SDS011;2896;53.500;10.020;2023-07-31T01:48:02;7.87;;;3.77;;
5742;SDS011;2896;53.500;10.020;2023-07-31T01:50:29;5.63;;;3.50;;
5742;SDS011;2896;53.500;10.020;2023-07-31T01:52:55;4.33;;;3.27;;
5742;SDS011;2896;53.500;10.020;2023-07-31T01:55:22;4.00;;;2.80;;
5742;SDS011;2896;53.500;10.020;2023-07-31T01:57:49;6.50;;;3.23;;
5742;SDS011;2896;53.500;10.020;2023-07-31T02:00:17;6.07;;;3.00;;
5742;SDS011;2896;53.500;10.020;2023-07-31T02:02:43;7.27;;;4.23;;
5742;SDS011;2896;53.500;10.020;2023-07-31T02:05:10;17.23;;;3.83;;
5742;SDS011;2896;53.500;10.020;2023-07-31T02:07:37;11.40;;;3.60;;
5742;SDS011;2896;53.500;10.020;2023-07-31T02:10:04;10.10;;;3.30;;
5742;SDS011;2896;53.500;10.020;2023-07-31T02:12:31;5.70;;;3.30;;
5742;SDS011;2896;53.500;10.020;2023-07-31T02:14:58;6.03;;;3.37;;
5742;SDS011;2896;53.500;10.020;2023-07-31T02:17:26;11.13;;;3.90;;
5742;SDS011;2896;53.500;10.020;2023-07-31T02:19:53;10.80;;;4.10;;
5742;SDS011;2896;53.500;10.020;2023-07-31T02:22:20;6.10;;;3.50;;
5742;SDS011;2896;53.500;10.020;2023-07-31T02:24:47;10.53;;;3.97;;
5742;SDS011;2896;53.500;10.020;2023-07-31T02:27:13;15.00;;;3.37;;
5742;SDS011;2896;53.500;10.020;2023-07-31T02:29:40;6.53;;;3.50;;
5742;SDS011;2896;53.500;10.020;2023-07-31T02:32:07;6.50;;;3.50;;
5742;SDS011;2896;53.500;10.020;2023-07-31T02:34:35;5.53;;;3.40;;
5742;SDS011;2896;53.500;10.020;2023-07-31T02:37:02;6.27;;;3.87;;
5742;SDS011;2896;53.500;10.020;2023-07-31T02:39:28;10.53;;;5.03;;
5742;SDS011;2896;53.500;10.020;2023-07-31T02:41:55;5.03;;;3.63;;
5742;SDS011;2896;53.500;10.020;2023-07-31T02:44:21;10.60;;;3.77;;
5742;SDS011;2896;53.500;10.020;2023-07-31T02:46:48;9.30;;;3.90;;
5742;SDS011;2896;53.500;10.020;2023-07-31T02:49:15;6.33;;;3.77;;
5742;SDS011;2896;53.500;10.020;2023-07-31T02:51:43;14.73;;;4.70;;
5742;SDS011;2896;53.500;10.020;2023-07-31T02:54:09;19.87;;;4.80;;
5742;SDS011;2896;53.500;10.020;2023-07-31T02:56:36;5.90;;;3.23;;
5742;SDS011;2896;53.500;10.020;2023-07-31T02:59:03;4.10;;;3.60;;
5742;SDS011;2896;53.500;10.020;2023-07-31T03:01:29;7.50;;;4.07;;
5742;SDS011;2896;53.500;10.020;2023-07-31T03:03:56;8.60;;;3.90;;
5742;SDS011;2896;53.500;10.020;2023-07-31T03:06:23;4.50;;;3.73;;
5742;SDS011;2896;53.500;10.020;2023-07-31T03:08:52;10.50;;;4.13;;
5742;SDS011;2896;53.500;10.020;2023-07-31T03:11:19;14.10;;;3.70;;
5742;SDS011;2896;53.500;10.020;2023-07-31T03:13:45;7.50;;;3.83;;
5742;SDS011;2896;53.500;10.020;2023-07-31T03:16:12;7.20;;;4.27;;
5742;SDS011;2896;53.500;10.020;2023-07-31T03:18:39;5.67;;;3.50;;
5742;SDS011;2896;53.500;10.020;2023-07-31T03:21:06;5.40;;;4.00;;
5742;SDS011;2896;53.500;10.020;2023-07-31T03:23:32;4.40;;;4.00;;
5742;SDS011;2896;53.500;10.020;2023-07-31T03:26:01;6.90;;;4.07;;
5742;SDS011;2896;53.500;10.020;2023-07-31T03:28:29;4.43;;;4.03;;
5742;SDS011;2896;53.500;10.020;2023-07-31T03:30:56;7.23;;;3.83;;
5742;SDS011;2896;53.500;10.020;2023-07-31T03:33:23;9.43;;;4.80;;
5742;SDS011;2896;53.500;10.020;2023-07-31T03:35:49;12.63;;;4.53;;
5742;SDS011;2896;53.500;10.020;2023-07-31T03:38:16;9.43;;;4.40;;
5742;SDS011;2896;53.500;10.020;2023-07-31T03:40:42;4.80;;;3.60;;
5742;SDS011;2896;53.500;10.020;2023-07-31T03:43:10;7.93;;;3.80;;
5742;SDS011;2896;53.500;10.020;2023-07-31T03:45:37;8.00;;;4.57;;
5742;SDS011;2896;53.500;10.020;2023-07-31T03:48:04;8.80;;;4.20;;
5742;SDS011;2896;53.500;10.020;2023-07-31T03:50:32;9.90;;;4.40;;
5742;SDS011;2896;53.500;10.020;2023-07-31T03:52:59;10.30;;;4.70;;
5742;SDS011;2896;53.500;10.020;2023-07-31T03:55:26;4.20;;;3.80;;
5742;SDS011;2896;53.500;10.020;2023-07-31T03:57:52;5.73;;;4.40;;
5742;SDS011;2896;53.500;10.020;2023-07-31T04:00:20;6.13;;;4.43;;
5742;SDS011;2896;53.500;10.020;2023-07-31T04:02:47;8.23;;;4.20;;
5742;SDS011;2896;53.500;10.020;2023-07-31T04:05:14;5.03;;;4.57;;
5742;SDS011;2896;53.500;10.020;2023-07-31T04:07:41;5.77;;;4.13;;
5742;SDS011;2896;53.500;10.020;2023-07-31T04:10:08;7.50;;;3.97;;
5742;SDS011;2896;53.500;10.020;2023-07-31T04:12:35;4.17;;;3.90;;
5742;SDS011;2896;53.500;10.020;2023-07-31T04:15:02;11.40;;;4.83;;
5742;SDS011;2896;53.500;10.020;2023-07-31T04:17:30;5.53;;;3.53;;
5742;SDS011;2896;53.500;10.020;2023-07-31T04:19:57;4.07;;;3.77;;
5742;SDS011;2896;53.500;10.020;2023-07-31T04:22:23;7.13;;;4.50;;
5742;SDS011;2896;53.500;10.020;2023-07-31T04:24:50;4.20;;;3.50;;
5742;SDS011;2896;53.500;10.020;2023-07-31T04:27:17;3.67;;;3.37;;
5742;SDS011;2896;53.500;10.020;2023-07-31T04:29:43;5.67;;;3.90;;
5742;SDS011;2896;53.500;10.020;2023-07-31T04:32:11;6.63;;;3.97;;
5742;SDS011;2896;53.500;10.020;2023-07-31T04:34:42;4.00;;;3.63;;
5742;SDS011;2896;53.500;10.020;2023-07-31T04:37:09;6.10;;;3.33;;
5742;SDS011;2896;53.500;10.020;2023-07-31T04:39:35;3.83;;;3.10;;
5742;SDS011;2896;53.500;10.020;2023-07-31T04:42:02;4.70;;;4.30;;
5742;SDS011;2896;53.500;10.020;2023-07-31T04:44:29;3.53;;;3.33;;
5742;SDS011;2896;53.500;10.020;2023-07-31T04:46:56;4.73;;;2.90;;
5742;SDS011;2896;53.500;10.020;2023-07-31T04:49:22;3.17;;;2.97;;
5742;SDS011;2896;53.500;10.020;2023-07-31T04:51:50;3.10;;;2.97;;
5742;SDS011;2896;53.500;10.020;2023-07-31T04:54:18;3.20;;;3.00;;
5742;SDS011;2896;53.500;10.020;2023-07-31T04:56:45;3.30;;;3.10;;
5742;SDS011;2896;53.500;10.020;2023-07-31T04:59:12;3.57;;;3.37;;
5742;SDS011;2896;53.500;10.020;2023-07-31T05:01:39;3.53;;;3.20;;
5742;SDS011;2896;53.500;10.020;2023-07-31T05:04:05;4.03;;;3.73;;
5742;SDS011;2896;53.500;10.020;2023-07-31T05:06:32;3.63;;;3.43;;
5742;SDS011;2896;53.500;10.020;2023-07-31T05:09:00;3.60;;;3.40;;
5742;SDS011;2896;53.500;10.020;2023-07-31T05:11:26;3.97;;;3.67;;
5742;SDS011;2896;53.500;10.020;2023-07-31T05:13:53;3.47;;;3.17;;
5742;SDS011;2896;53.500;10.020;2023-07-31T05:16:20;3.60;;;3.33;;
5742;SDS011;2896;53.500;10.020;2023-07-31T05:18:47;3.37;;;3.23;;
5742;SDS011;2896;53.500;10.020;2023-07-31T05:21:13;8.23;;;3.67;;
5742;SDS011;2896;53.500;10.020;2023-07-31T05:23:40;3.00;;;2.90;;
5742;SDS011;2896;53.500;10.020;2023-07-31T05:26:08;4.27;;;3.33;;
5742;SDS011;2896;53.500;10.020;2023-07-31T05:28:35;2.93;;;2.83;;
5742;SDS011;2896;53.500;10.020;2023-07-31T05:31:02;3.13;;;2.93;;
5742;SDS011;2896;53.500;10.020;2023-07-31T05:33:30;3.70;;;3.40;;
5742;SDS011;2896;53.500;10.020;2023-07-31T05:35:57;3.60;;;3.40;;
5742;SDS011;2896;53.500;10.020;2023-07-31T05:38:24;3.20;;;3.10;;
5742;SDS011;2896;53.500;10.020;2023-07-31T05:40:50;6.17;;;4.17;;
5742;SDS011;2896;53.500;10.020;2023-07-31T05:43:18;5.00;;;4.00;;
5742;SDS011;2896;53.500;10.020;2023-07-31T05:45:45;4.93;;;3.53;;
5742;SDS011;2896;53.500;10.020;2023-07-31T05:48:12;3.30;;;3.10;;
5742;SDS011;2896;53.500;10.020;2023-07-31T05:50:38;3.60;;;3.37;;
5742;SDS011;2896;53.500;10.020;2023-07-31T05:53:05;3.77;;;3.40;;
5742;SDS011;2896;53.500;10.020;2023-07-31T05:55:33;3.10;;;2.90;;
5742;SDS011;2896;53.500;10.020;2023-07-31T05:57:59;4.93;;;3.50;;
5742;SDS011;2896;53.500;10.020;2023-07-31T06:00:27;4.10;;;3.80;;
5742;SDS011;2896;53.500;10.020;2023-07-31T06:02:54;7.93;;;4.10;;
5742;SDS011;2896;53.500;10.020;2023-07-31T06:05:21;7.57;;;3.70;;
5742;SDS011;2896;53.500;10.020;2023-07-31T06:07:48;3.60;;;3.40;;
5742;SDS011;2896;53.500;10.020;2023-07-31T06:10:14;3.40;;;3.20;;
5742;SDS011;2896;53.500;10.020;2023-07-31T06:12:41;3.60;;;3.40;;
5742;SDS011;2896;53.500;10.020;2023-07-31T06:15:08;3.20;;;3.00;;
5742;SDS011;2896;53.500;10.020;2023-07-31T06:17:36;4.10;;;3.80;;
5742;SDS011;2896;53.500;10.020;2023-07-31T06:20:03;3.30;;;3.10;;
5742;SDS011;2896;53.500;10.020;2023-07-31T06:22:30;3.67;;;3.47;;
5742;SDS011;2896;53.500;10.020;2023-07-31T06:24:57;3.60;;;3.40;;
5742;SDS011;2896;53.500;10.020;2023-07-31T06:27:24;3.50;;;3.30;;
5742;SDS011;2896;53.500;10.020;2023-07-31T06:29:51;3.40;;;3.30;;
5742;SDS011;2896;53.500;10.020;2023-07-31T06:32:18;3.90;;;3.60;;
5742;SDS011;2896;53.500;10.020;2023-07-31T06:34:45;3.10;;;3.00;;
5742;SDS011;2896;53.500;10.020;2023-07-31T06:37:12;3.37;;;3.07;;
5742;SDS011;2896;53.500;10.020;2023-07-31T06:39:39;3.57;;;3.37;;
5742;SDS011;2896;53.500;10.020;2023-07-31T06:42:06;3.63;;;3.43;;
5742;SDS011;2896;53.500;10.020;2023-07-31T06:44:32;10.33;;;3.53;;
5742;SDS011;2896;53.500;10.020;2023-07-31T06:46:59;3.60;;;3.40;;
5742;SDS011;2896;53.500;10.020;2023-07-31T06:49:25;3.07;;;2.97;;
5742;SDS011;2896;53.500;10.020;2023-07-31T06:51:53;3.97;;;3.20;;
5742;SDS011;2896;53.500;10.020;2023-07-31T06:54:20;2.83;;;2.70;;
5742;SDS011;2896;53.500;10.020;2023-07-31T06:56:46;2.40;;;2.40;;
5742;SDS011;2896;53.500;10.020;2023-07-31T06:59:13;2.57;;;2.47;;
5742;SDS011;2896;53.500;10.020;2023-07-31T07:01:40;2.67;;;2.57;;
5742;SDS011;2896;53.500;10.020;2023-07-31T07:04:06;2.40;;;2.30;;
5742;SDS011;2896;53.500;10.020;2023-07-31T07:06:33;3.13;;;2.93;;
5742;SDS011;2896;53.500;10.020;2023-07-31T07:09:01;2.70;;;2.50;;
5742;SDS011;2896;53.500;10.020;2023-07-31T07:11:28;4.80;;;3.00;;
5742;SDS011;2896;53.500;10.020;2023-07-31T07:13:54;2.97;;;2.87;;
5742;SDS011;2896;53.500;10.020;2023-07-31T07:16:21;2.53;;;2.43;;
5742;SDS011;2896;53.500;10.020;2023-07-31T07:18:48;3.60;;;2.40;;
5742;SDS011;2896;53.500;10.020;2023-07-31T07:21:14;2.13;;;2.03;;
5742;SDS011;2896;53.500;10.020;2023-07-31T07:23:42;2.63;;;2.53;;
5742;SDS011;2896;53.500;10.020;2023-07-31T07:26:11;6.00;;;2.40;;
5742;SDS011;2896;53.500;10.020;2023-07-31T07:28:37;2.43;;;2.30;;
5742;SDS011;2896;53.500;10.020;2023-07-31T07:31:04;2.53;;;2.43;;
5742;SDS011;2896;53.500;10.020;2023-07-31T07:33:30;2.20;;;2.10;;
5742;SDS011;2896;53.500;10.020;2023-07-31T07:35:59;1.93;;;1.83;;
5742;SDS011;2896;53.500;10.020;2023-07-31T07:38:26;2.30;;;2.20;;
5742;SDS011;2896;53.500;10.020;2023-07-31T07:40:53;1.90;;;1.80;;
5742;SDS011;2896;53.500;10.020;2023-07-31T07:43:21;2.37;;;2.37;;
5742;SDS011;2896;53.500;10.020;2023-07-31T07:45:48;2.00;;;1.90;;
5742;SDS011;2896;53.500;10.020;2023-07-31T07:48:15;1.80;;;1.80;;
5742;SDS011;2896;53.500;10.020;2023-07-31T07:50:42;1.97;;;1.83;;
5742;SDS011;2896;53.500;10.020;2023-07-31T07:53:08;2.17;;;2.07;;
5742;SDS011;2896;53.500;10.020;2023-07-31T07:55:35;1.80;;;1.80;;
5742;SDS011;2896;53.500;10.020;2023-07-31T07:58:02;1.77;;;1.67;;
5742;SDS011;2896;53.500;10.020;2023-07-31T08:00:30;2.13;;;2.07;;
5742;SDS011;2896;53.500;10.020;2023-07-31T08:02:56;2.30;;;1.80;;
5742;SDS011;2896;53.500;10.020;2023-07-31T08:05:23;2.00;;;2.00;;
5742;SDS011;2896;53.500;10.020;2023-07-31T08:07:50;1.80;;;1.80;;
5742;SDS011;2896;53.500;10.020;2023-07-31T08:10:16;1.60;;;1.60;;
5742;SDS011;2896;53.500;10.020;2023-07-31T08:12:43;1.80;;;1.70;;
5742;SDS011;2896;53.500;10.020;2023-07-31T08:15:10;1.73;;;1.60;;
5742;SDS011;2896;53.500;10.020;2023-07-31T08:17:38;1.53;;;1.53;;
5742;SDS011;2896;53.500;10.020;2023-07-31T08:20:05;2.07;;;1.97;;
5742;SDS011;2896;53.500;10.020;2023-07-31T08:22:32;1.57;;;1.57;;
5742;SDS011;2896;53.500;10.020;2023-07-31T08:24:59;1.50;;;1.50;;
5742;SDS011;2896;53.500;10.020;2023-07-31T08:27:26;1.67;;;1.60;;
5742;SDS011;2896;53.500;10.020;2023-07-31T08:29:52;1.47;;;1.37;;
5742;SDS011;2896;53.500;10.020;2023-07-31T08:32:19;1.20;;;1.20;;
5742;SDS011;2896;53.500;10.020;2023-07-31T08:34:47;1.43;;;1.43;;
5742;SDS011;2896;53.500;10.020;2023-07-31T08:37:14;1.40;;;1.40;;
5742;SDS011;2896;53.500;10.020;2023-07-31T08:39:41;1.30;;;1.20;;
5742;SDS011;2896;53.500;10.020;2023-07-31T08:42:07;2.40;;;1.30;;
5742;SDS011;2896;53.500;10.020;2023-07-31T08:44:35;0.90;;;0.90;;
5742;SDS011;2896;53.500;10.020;2023-07-31T08:47:03;1.40;;;1.30;;
5742;SDS011;2896;53.500;10.020;2023-07-31T08:49:30;11.73;;;1.20;;
5742;SDS011;2896;53.500;10.020;2023-07-31T08:51:59;2.77;;;1.23;;
5742;SDS011;2896;53.500;10.020;2023-07-31T08:54:26;1.03;;;1.03;;
5742;SDS011;2896;53.500;10.020;2023-07-31T08:56:55;1.30;;;1.30;;
5742;SDS011;2896;53.500;10.020;2023-07-31T08:59:24;2.90;;;1.00;;
5742;SDS011;2896;53.500;10.020;2023-07-31T09:01:52;0.90;;;0.90;;
5742;SDS011;2896;53.500;10.020;2023-07-31T09:04:21;2.33;;;1.23;;
5742;SDS011;2896;53.500;10.020;2023-07-31T09:06:50;1.20;;;1.20;;
5742;SDS011;2896;53.500;10.020;2023-07-31T09:09:22;7.80;;;2.40;;
5742;SDS011;2896;53.500;10.020;2023-07-31T09:11:49;2.20;;;1.50;;
5742;SDS011;2896;53.500;10.020;2023-07-31T09:14:16;3.70;;;1.00;;
5742;SDS011;2896;53.500;10.020;2023-07-31T09:16:53;1.57;;;1.30;;
5742;SDS011;2896;53.500;10.020;2023-07-31T09:19:26;1.10;;;1.10;;
5742;SDS011;2896;53.500;10.020;2023-07-31T09:21:54;0.90;;;0.90;;
5742;SDS011;2896;53.500;10.020;2023-07-31T09:24:28;1.87;;;1.17;;
5742;SDS011;2896;53.500;10.020;2023-07-31T09:26:56;1.47;;;0.97;;
5742;SDS011;2896;53.500;10.020;2023-07-31T09:29:24;1.20;;;1.20;;
5742;SDS011;2896;53.500;10.020;2023-07-31T09:31:51;2.47;;;1.27;;
5742;SDS011;2896;53.500;10.020;2023-07-31T09:34:19;1.67;;;1.67;;
5742;SDS011;2896;53.500;10.020;2023-07-31T09:36:47;2.60;;;1.20;;
5742;SDS011;2896;53.500;10.020;2023-07-31T09:39:16;1.57;;;0.97;;
5742;SDS011;2896;53.500;10.020;2023-07-31T09:41:47;1.43;;;1.10;;
5742;SDS011;2896;53.500;10.020;2023-07-31T09:44:19;1.27;;;1.27;;
5742;SDS011;2896;53.500;10.020;2023-07-31T09:46:46;1.33;;;0.90;;
5742;SDS011;2896;53.500;10.020;2023-07-31T09:49:14;0.93;;;0.93;;
5742;SDS011;2896;53.500;10.020;2023-07-31T09:51:41;1.17;;;1.17;;
5742;SDS011;2896;53.500;10.020;2023-07-31T09:54:11;1.23;;;1.10;;
5742;SDS011;2896;53.500;10.020;2023-07-31T09:56:41;0.90;;;0.90;;
5742;SDS011;2896;53.500;10.020;2023-07-31T09:59:11;1.40;;;1.40;;
5742;SDS011;2896;53.500;10.020;2023-07-31T10:01:39;1.00;;;1.00;;
5742;SDS011;2896;53.500;10.020;2023-07-31T10:04:07;1.10;;;1.10;;
5742;SDS011;2896;53.500;10.020;2023-07-31T10:06:35;0.60;;;0.60;;
5742;SDS011;2896;53.500;10.020;2023-07-31T10:09:03;0.87;;;0.87;;
5742;SDS011;2896;53.500;10.020;2023-07-31T10:11:31;8.10;;;0.80;;
5742;SDS011;2896;53.500;10.020;2023-07-31T10:14:02;1.00;;;1.00;;
5742;SDS011;2896;53.500;10.020;2023-07-31T10:16:30;0.90;;;0.90;;
5742;SDS011;2896;53.500;10.020;2023-07-31T10:18:57;4.50;;;1.00;;
5742;SDS011;2896;53.500;10.020;2023-07-31T10:21:25;1.07;;;1.03;;
5742;SDS011;2896;53.500;10.020;2023-07-31T10:23:52;1.10;;;1.10;;
5742;SDS011;2896;53.500;10.020;2023-07-31T10:26:20;1.00;;;1.00;;
5742;SDS011;2896;53.500;10.020;2023-07-31T10:28:49;1.50;;;1.40;;
5742;SDS011;2896;53.500;10.020;2023-07-31T10:31:18;1.67;;;1.57;;
5742;SDS011;2896;53.500;10.020;2023-07-31T10:33:47;2.00;;;1.90;;
5742;SDS011;2896;53.500;10.020;2023-07-31T10:36:14;3.87;;;3.40;;
5742;SDS011;2896;53.500;10.020;2023-07-31T10:38:43;2.97;;;2.70;;
5742;SDS011;2896;53.500;10.020;2023-07-31T10:41:10;4.00;;;3.70;;
5742;SDS011;2896;53.500;10.020;2023-07-31T10:43:37;8.87;;;5.00;;
5742;SDS011;2896;53.500;10.020;2023-07-31T10:46:06;15.23;;;7.50;;
5742;SDS011;2896;53.500;10.020;2023-07-31T10:48:34;22.73;;;8.17;;
5742;SDS011;2896;53.500;10.020;2023-07-31T10:51:06;19.50;;;8.67;;
5742;SDS011;2896;53.500;10.020;2023-07-31T10:53:33;15.17;;;8.87;;
5742;SDS011;2896;53.500;10.020;2023-07-31T10:56:00;12.70;;;8.77;;
5742;SDS011;2896;53.500;10.020;2023-07-31T10:58:28;22.00;;;10.40;;
5742;SDS011;2896;53.500;10.020;2023-07-31T11:00:57;24.97;;;10.10;;
5742;SDS011;2896;53.500;10.020;2023-07-31T11:03:26;18.73;;;8.80;;
5742;SDS011;2896;53.500;10.020;2023-07-31T11:06:07;16.30;;;9.30;;
5742;SDS011;2896;53.500;10.020;2023-07-31T11:08:34;19.73;;;9.83;;
5742;SDS011;2896;53.500;10.020;2023-07-31T11:11:07;14.47;;;8.07;;
5742;SDS011;2896;53.500;10.020;2023-07-31T11:13:39;13.80;;;7.80;;
5742;SDS011;2896;53.500;10.020;2023-07-31T11:16:07;17.83;;;7.43;;
5742;SDS011;2896;53.500;10.020;2023-07-31T11:18:34;10.63;;;6.90;;
5742;SDS011;2896;53.500;10.020;2023-07-31T11:21:01;6.77;;;5.37;;
5742;SDS011;2896;53.500;10.020;2023-07-31T11:23:30;10.93;;;5.80;;
5742;SDS011;2896;53.500;10.020;2023-07-31T11:25:59;5.40;;;4.90;;
5742;SDS011;2896;53.500;10.020;2023-07-31T11:28:26;10.00;;;5.13;;
5742;SDS011;2896;53.500;10.020;2023-07-31T11:30:57;6.37;;;4.67;;
5742;SDS011;2896;53.500;10.020;2023-07-31T11:33:24;5.53;;;3.70;;
5742;SDS011;2896;53.500;10.020;2023-07-31T11:35:51;6.23;;;3.57;;
5742;SDS011;2896;53.500;10.020;2023-07-31T11:38:21;4.47;;;3.90;;
5742;SDS011;2896;53.500;10.020;2023-07-31T11:40:50;4.63;;;3.87;;
5742;SDS011;2896;53.500;10.020;2023-07-31T11:43:17;4.03;;;3.50;;
5742;SDS011;2896;53.500;10.020;2023-07-31T11:45:46;4.53;;;3.93;;
5742;SDS011;2896;53.500;10.020;2023-07-31T11:48:18;4.53;;;3.43;;
5742;SDS011;2896;53.500;10.020;2023-07-31T11:50:45;5.27;;;3.30;;
5742;SDS011;2896;53.500;10.020;2023-07-31T11:53:14;3.60;;;3.30;;
5742;SDS011;2896;53.500;10.020;2023-07-31T11:55:41;3.13;;;2.93;;
5742;SDS011;2896;53.500;10.020;2023-07-31T11:58:10;3.73;;;3.43;;
5742;SDS011;2896;53.500;10.020;2023-07-31T12:00:37;2.93;;;2.77;;
5742;SDS011;2896;53.500;10.020;2023-07-31T12:03:04;3.53;;;2.70;;
5742;SDS011;2896;53.500;10.020;2023-07-31T12:05:30;3.50;;;3.30;;
5742;SDS011;2896;53.500;10.020;2023-07-31T12:07:57;3.13;;;2.90;;
5742;SDS011;2896;53.500;10.020;2023-07-31T12:10:24;3.30;;;3.00;;
5742;SDS011;2896;53.500;10.020;2023-07-31T12:12:55;4.87;;;2.73;;
5742;SDS011;2896;53.500;10.020;2023-07-31T12:15:29;3.10;;;2.53;;
5742;SDS011;2896;53.500;10.020;2023-07-31T12:17:58;2.37;;;2.27;;
5742;SDS011;2896;53.500;10.020;2023-07-31T12:20:26;2.23;;;2.13;;
5742;SDS011;2896;53.500;10.020;2023-07-31T12:22:52;4.00;;;2.83;;
5742;SDS011;2896;53.500;10.020;2023-07-31T12:25:22;2.60;;;2.40;;
5742;SDS011;2896;53.500;10.020;2023-07-31T12:27:50;7.30;;;2.50;;
5742;SDS011;2896;53.500;10.020;2023-07-31T12:30:26;3.17;;;2.07;;
5742;SDS011;2896;53.500;10.020;2023-07-31T12:32:55;2.20;;;2.10;;
5742;SDS011;2896;53.500;10.020;2023-07-31T12:35:22;2.30;;;2.10;;
5742;SDS011;2896;53.500;10.020;2023-07-31T12:37:48;1.87;;;1.87;;
5742;SDS011;2896;53.500;10.020;2023-07-31T12:40:15;2.30;;;1.87;;
5742;SDS011;2896;53.500;10.020;2023-07-31T12:42:42;1.80;;;1.70;;
5742;SDS011;2896;53.500;10.020;2023-07-31T12:45:08;2.20;;;1.53;;
5742;SDS011;2896;53.500;10.020;2023-07-31T12:47:35;1.90;;;1.80;;
5742;SDS011;2896;53.500;10.020;2023-07-31T12:50:03;3.83;;;1.63;;
5742;SDS011;2896;53.500;10.020;2023-07-31T12:52:31;1.20;;;1.20;;
5742;SDS011;2896;53.500;10.020;2023-07-31T12:54:58;1.40;;;1.30;;
5742;SDS011;2896;53.500;10.020;2023-07-31T12:57:25;2.83;;;1.53;;
5742;SDS011;2896;53.500;10.020;2023-07-31T12:59:51;1.30;;;1.30;;
5742;SDS011;2896;53.500;10.020;2023-07-31T13:02:18;2.40;;;1.37;;
5742;SDS011;2896;53.500;10.020;2023-07-31T13:04:45;1.40;;;1.33;;
5742;SDS011;2896;53.500;10.020;2023-07-31T13:07:13;1.40;;;1.40;;
5742;SDS011;2896;53.500;10.020;2023-07-31T13:09:40;1.40;;;1.40;;
5742;SDS011;2896;53.500;10.020;2023-07-31T13:12:07;2.50;;;1.83;;
5742;SDS011;2896;53.500;10.020;2023-07-31T13:14:34;1.10;;;1.10;;
5742;SDS011;2896;53.500;10.020;2023-07-31T13:17:01;1.50;;;1.40;;
5742;SDS011;2896;53.500;10.020;2023-07-31T13:19:28;1.43;;;1.43;;
5742;SDS011;2896;53.500;10.020;2023-07-31T13:21:54;1.20;;;1.10;;
5742;SDS011;2896;53.500;10.020;2023-07-31T13:24:22;3.70;;;1.40;;
5742;SDS011;2896;53.500;10.020;2023-07-31T13:26:49;1.10;;;1.10;;
5742;SDS011;2896;53.500;10.020;2023-07-31T13:29:16;1.00;;;1.00;;
5742;SDS011;2896;53.500;10.020;2023-07-31T13:31:42;1.17;;;1.17;;
5742;SDS011;2896;53.500;10.020;2023-07-31T13:34:09;1.60;;;1.57;;
5742;SDS011;2896;53.500;10.020;2023-07-31T13:36:36;1.90;;;1.20;;
5742;SDS011;2896;53.500;10.020;2023-07-31T13:39:02;1.70;;;1.60;;
5742;SDS011;2896;53.500;10.020;2023-07-31T13:41:30;1.07;;;1.07;;
5742;SDS011;2896;53.500;10.020;2023-07-31T13:43:57;1.10;;;1.00;;
5742;SDS011;2896;53.500;10.020;2023-07-31T13:46:24;5.63;;;1.40;;
5742;SDS011;2896;53.500;10.020;2023-07-31T13:48:50;1.70;;;0.90;;
5742;SDS011;2896;53.500;10.020;2023-07-31T13:51:19;1.00;;;1.00;;
5742;SDS011;2896;53.500;10.020;2023-07-31T13:53:46;1.20;;;1.10;;
5742;SDS011;2896;53.500;10.020;2023-07-31T13:56:13;0.90;;;0.90;;
5742;SDS011;2896;53.500;10.020;2023-07-31T13:58:41;0.80;;;0.80;;
5742;SDS011;2896;53.500;10.020;2023-07-31T14:01:07;1.00;;;1.00;;
5742;SDS011;2896;53.500;10.020;2023-07-31T14:03:34;0.80;;;0.80;;
5742;SDS011;2896;53.500;10.020;2023-07-31T14:06:00;0.73;;;0.73;;
5742;SDS011;2896;53.500;10.020;2023-07-31T14:08:27;1.03;;;1.03;;
5742;SDS011;2896;53.500;10.020;2023-07-31T14:10:54;0.90;;;0.90;;
5742;SDS011;2896;53.500;10.020;2023-07-31T14:13:21;0.80;;;0.80;;
5742;SDS011;2896;53.500;10.020;2023-07-31T14:15:49;0.90;;;0.90;;
5742;SDS011;2896;53.500;10.020;2023-07-31T14:18:15;2.50;;;0.83;;
5742;SDS011;2896;53.500;10.020;2023-07-31T14:20:42;0.77;;;0.77;;
5742;SDS011;2896;53.500;10.020;2023-07-31T14:23:09;4.67;;;0.93;;
5742;SDS011;2896;53.500;10.020;2023-07-31T14:25:35;0.97;;;0.87;;
5742;SDS011;2896;53.500;10.020;2023-07-31T14:28:02;2.30;;;1.10;;
5742;SDS011;2896;53.500;10.020;2023-07-31T14:30:29;0.90;;;0.90;;
5742;SDS011;2896;53.500;10.020;2023-07-31T14:32:57;0.93;;;0.93;;
5742;SDS011;2896;53.500;10.020;2023-07-31T14:35:25;1.83;;;0.90;;
5742;SDS011;2896;53.500;10.020;2023-07-31T14:37:52;1.83;;;0.87;;
5742;SDS011;2896;53.500;10.020;2023-07-31T14:40:18;1.07;;;1.07;;
5742;SDS011;2896;53.500;10.020;2023-07-31T14:42:45;1.33;;;1.17;;
5742;SDS011;2896;53.500;10.020;2023-07-31T14:45:12;1.00;;;1.00;;
5742;SDS011;2896;53.500;10.020;2023-07-31T14:47:38;0.90;;;0.90;;
5742;SDS011;2896;53.500;10.020;2023-07-31T14:50:07;3.80;;;1.00;;
5742;SDS011;2896;53.500;10.020;2023-07-31T14:52:34;1.03;;;1.03;;
5742;SDS011;2896;53.500;10.020;2023-07-31T14:55:00;1.33;;;1.23;;
5742;SDS011;2896;53.500;10.020;2023-07-31T14:57:27;2.00;;;1.20;;
5742;SDS011;2896;53.500;10.020;2023-07-31T14:59:54;1.80;;;1.80;;
5742;SDS011;2896;53.500;10.020;2023-07-31T15:02:21;1.40;;;1.40;;